Bangor, Maine
Current Conditions -  °F | °C
As of 10:53 PM on Sunday 25 Jan 2015 (Local Time) from KBGR Reporting Station
Clear Clear  
Wind Chill: -3°   Ceiling: Unl
Heat Index:   Visibility: 10mi
Dew Point: -6°   Wind: 6mph
Humidity: 55%   Direction: 280°W
Pressure: 29.97"   Gusts: NA
Location:  44.8°N, 68.77°W
Report Text: KBGR 260353Z 28005KT 10SM CLR M14/M21 A2997 RMK AO2 SLP152 T11391211
Loading
Personal Weather Stations






























Interactive Weather Map New forecast layout! Learn more

10-Day Weather Forecast

Advertisements
Track Severe Weather on mobile